Time;durP1;ratioP1;P1;durP2;ratioP2;P2;SDS_P1;SDS_P2;PMS_P1;PMS_P2;Temp;Humidity;BMP_temperature;BMP_pressure;BME280_temperature;BME280_humidity;BME280_pressure;Samples;Min_cycle;Max_cycle;Signal;HPM_P1;HPM_P2
2022/01/19 00:01:48;;;;;;;7.72;2.13;;;;;;;;;;2252199;28;10001959;-68
2022/01/19 00:04:16;;;;;;;6.10;2.03;;;;;;;;;;5028623;28;20050;-68
2022/01/19 00:06:45;;;;;;;8.70;2.33;;;;;;;;;;5015824;28;20136;-68
2022/01/19 00:09:13;;;;;;;6.50;2.22;;;;;;;;;;5028652;28;20073;-68
2022/01/19 00:11:41;;;;;;;7.72;2.10;;;;;;;;;;5033709;28;20124;-68
2022/01/19 00:14:09;;;;;;;5.38;1.88;;;;;;;;;;5031872;28;20128;-68
2022/01/19 00:16:38;;;;;;;11.02;2.40;;;;;;;;;;5033855;28;20082;-68
2022/01/19 00:19:07;;;;;;;4.75;1.75;;;;;;;;;;5029574;28;20057;-68
2022/01/19 00:21:35;;;;;;;9.10;2.85;;;;;;;;;;5029704;28;20091;-68
2022/01/19 00:24:04;;;;;;;8.05;1.80;;;;;;;;;;5030796;28;20132;-68
2022/01/19 00:26:36;;;;;;;6.07;1.83;;;;;;;;;;5035030;28;20492;-68
2022/01/19 00:29:05;;;;;;;6.72;1.77;;;;;;;;;;5030885;28;20046;-68
2022/01/19 00:31:33;;;;;;;6.55;1.80;;;;;;;;;;5029419;28;20132;-68
2022/01/19 00:34:01;;;;;;;3.08;1.58;;;;;;;;;;5025198;28;20054;-68
2022/01/19 00:36:32;;;;;;;2.53;1.63;;;;;;;;;;5046457;28;20053;-68
2022/01/19 00:39:00;;;;;;;5.28;1.95;;;;;;;;;;5034760;28;20054;-68
2022/01/19 00:41:28;;;;;;;5.32;2.42;;;;;;;;;;5039616;28;20405;-68
2022/01/19 00:43:57;;;;;;;1.75;1.30;;;;;;;;;;5031813;28;20099;-68
2022/01/19 00:46:25;;;;;;;5.53;1.60;;;;;;;;;;5037362;28;20053;-68
2022/01/19 00:48:53;;;;;;;8.68;1.88;;;;;;;;;;5032360;28;20045;-68
2022/01/19 00:51:22;;;;;;;3.53;2.17;;;;;;;;;;5031785;28;20041;-68
2022/01/19 00:53:52;;;;;;;7.13;2.30;;;;;;;;;;5032686;28;20048;-68
2022/01/19 00:56:20;;;;;;;8.93;2.00;;;;;;;;;;5041030;28;20045;-68
2022/01/19 00:58:48;;;;;;;5.15;2.05;;;;;;;;;;5035013;28;20155;-68
2022/01/19 01:01:16;;;;;;;8.52;2.72;;;;;;;;;;5041506;28;20049;-68
2022/01/19 01:03:45;;;;;;;2.70;1.35;;;;;;;;;;5058019;28;20041;-68
2022/01/19 01:06:14;;;;;;;5.97;2.20;;;;;;;;;;5039962;28;20069;-68
2022/01/19 01:08:43;;;;;;;6.68;2.03;;;;;;;;;;5042431;28;20533;-68
2022/01/19 01:11:13;;;;;;;7.38;2.17;;;;;;;;;;5042751;28;20084;-68
2022/01/19 01:16:33;;;;;;;2.75;1.73;;;;;;;;;;5048337;28;20076;-68
2022/01/19 01:19:03;;;;;;;9.32;2.35;;;;;;;;;;5040557;28;21746;-68
2022/01/19 01:21:32;;;;;;;7.32;2.08;;;;;;;;;;5049782;28;20136;-68
2022/01/19 01:24:01;;;;;;;7.03;1.90;;;;;;;;;;5067362;28;20040;-68
2022/01/19 01:26:30;;;;;;;4.20;1.92;;;;;;;;;;5058144;28;20082;-68
2022/01/19 01:28:59;;;;;;;8.57;1.80;;;;;;;;;;5049971;28;20131;-68
2022/01/19 01:31:27;;;;;;;4.63;2.03;;;;;;;;;;5039693;28;20140;-68
2022/01/19 01:33:55;;;;;;;3.85;1.55;;;;;;;;;;5042070;28;20075;-68
2022/01/19 01:36:23;;;;;;;4.63;2.08;;;;;;;;;;5042744;28;20133;-68
2022/01/19 01:38:52;;;;;;;3.80;1.67;;;;;;;;;;5052255;28;20080;-68
2022/01/19 01:41:20;;;;;;;4.10;2.25;;;;;;;;;;5050511;28;20167;-68
2022/01/19 01:43:50;;;;;;;4.10;1.77;;;;;;;;;;5045179;28;20603;-68
2022/01/19 01:46:30;;;;;;;6.40;2.60;;;;;;;;;;5044467;28;20064;-68
2022/01/19 01:48:59;;;;;;;1.88;1.42;;;;;;;;;;5036235;28;20045;-68
2022/01/19 01:54:13;;;;;;;6.93;2.08;;;;;;;;;;5046442;28;20055;-68
2022/01/19 01:56:42;;;;;;;7.93;2.50;;;;;;;;;;5048111;28;20068;-68
2022/01/19 01:59:11;;;;;;;5.85;1.88;;;;;;;;;;5048602;28;20436;-68
2022/01/19 02:01:40;;;;;;;8.35;2.10;;;;;;;;;;5052490;28;20072;-68
2022/01/19 02:04:09;;;;;;;6.28;2.60;;;;;;;;;;5041537;28;20045;-68
2022/01/19 02:06:53;;;;;;;5.55;1.60;;;;;;;;;;5052738;28;20124;-68
2022/01/19 02:09:24;;;;;;;3.55;1.98;;;;;;;;;;5052614;28;20088;-68
2022/01/19 02:23:03;;;;;;;7.10;1.98;;;;;;;;;;5053464;28;20048;-68
2022/01/19 02:25:37;;;;;;;9.40;2.38;;;;;;;;;;5054139;28;20045;-68
2022/01/19 02:41:59;;;;;;;5.55;2.10;;;;;;;;;;5040099;28;20144;-68
2022/01/19 02:44:39;;;;;;;8.20;1.92;;;;;;;;;;5040560;28;20083;-68
2022/01/19 02:49:56;;;;;;;3.83;1.98;;;;;;;;;;5045406;28;20461;-68
2022/01/19 02:52:26;;;;;;;13.80;2.40;;;;;;;;;;5050280;28;20139;-68
2022/01/19 02:54:54;;;;;;;2.70;1.30;;;;;;;;;;5039471;28;20124;-68
2022/01/19 02:57:25;;;;;;;10.05;2.28;;;;;;;;;;5040180;28;20135;-68
2022/01/19 03:11:06;;;;;;;5.25;2.15;;;;;;;;;;5052731;28;20473;-68
2022/01/19 03:13:35;;;;;;;3.85;1.52;;;;;;;;;;5049642;28;20132;-68
2022/01/19 03:16:06;;;;;;;4.13;2.03;;;;;;;;;;5060034;28;20590;-68
2022/01/19 03:18:34;;;;;;;4.47;2.22;;;;;;;;;;5053292;28;20459;-68
2022/01/19 03:21:06;;;;;;;4.75;2.05;;;;;;;;;;5052747;28;20124;-68
2022/01/19 03:23:35;;;;;;;4.07;2.20;;;;;;;;;;5037409;28;20409;-68
2022/01/19 03:26:08;;;;;;;4.22;2.13;;;;;;;;;;5055290;28;20041;-68
2022/01/19 03:28:36;;;;;;;8.80;2.60;;;;;;;;;;5056047;28;20045;-68
2022/01/19 03:31:07;;;;;;;7.97;1.98;;;;;;;;;;5049598;28;20053;-68
2022/01/19 03:33:36;;;;;;;5.90;2.65;;;;;;;;;;5048954;28;20036;-68
2022/01/19 03:36:07;;;;;;;4.90;1.77;;;;;;;;;;5044517;28;20099;-68
2022/01/19 03:38:37;;;;;;;7.25;2.15;;;;;;;;;;5041912;28;20081;-68
2022/01/19 03:41:09;;;;;;;5.80;2.42;;;;;;;;;;5046377;28;20493;-68
2022/01/19 03:43:37;;;;;;;9.68;2.72;;;;;;;;;;5053575;28;20392;-68
2022/01/19 03:46:21;;;;;;;5.15;2.20;;;;;;;;;;4021284;28;10002064;-68
2022/01/19 03:48:55;;;;;;;6.82;2.55;;;;;;;;;;2080870;28;10002026;-68
2022/01/19 03:51:24;;;;;;;5.85;2.30;;;;;;;;;;5053689;28;20495;-68
2022/01/19 03:53:54;;;;;;;3.17;1.95;;;;;;;;;;5042183;28;20497;-68
2022/01/19 03:56:22;;;;;;;3.92;2.20;;;;;;;;;;5036673;28;20059;-68
2022/01/19 03:58:50;;;;;;;4.18;2.13;;;;;;;;;;5039314;28;20132;-68
2022/01/19 04:01:18;;;;;;;9.23;2.50;;;;;;;;;;5047267;28;20136;-68
2022/01/19 04:04:07;;;;;;;3.10;1.60;;;;;;;;;;5034932;28;20053;-68
2022/01/19 04:06:55;;;;;;;5.00;1.95;;;;;;;;;;5044089;28;20072;-68
2022/01/19 04:09:25;;;;;;;6.18;2.35;;;;;;;;;;5053263;28;20053;-68
2022/01/19 04:11:53;;;;;;;5.93;2.38;;;;;;;;;;5044541;28;20053;-68
2022/01/19 04:14:24;;;;;;;7.68;2.47;;;;;;;;;;5058650;28;20088;-68
2022/01/19 04:16:53;;;;;;;4.25;2.20;;;;;;;;;;5043503;28;20135;-68
2022/01/19 04:19:28;;;;;;;7.53;2.42;;;;;;;;;;5049706;28;20140;-68
2022/01/19 04:21:57;;;;;;;5.35;2.55;;;;;;;;;;5049575;28;20055;-68
2022/01/19 04:24:27;;;;;;;4.78;2.25;;;;;;;;;;5045810;28;20468;-68
2022/01/19 04:29:42;;;;;;;6.30;2.33;;;;;;;;;;5056519;28;20087;-68
2022/01/19 04:32:14;;;;;;;6.55;2.42;;;;;;;;;;5054812;28;20316;-68
2022/01/19 04:34:45;;;;;;;7.75;2.42;;;;;;;;;;5042444;28;20136;-68
2022/01/19 04:37:33;;;;;;;8.73;2.65;;;;;;;;;;5040313;28;20131;-68
2022/01/19 04:46:02;;;;;;;5.22;2.67;;;;;;;;;;5040901;28;20133;-68
2022/01/19 05:02:57;;;;;;;6.47;2.35;;;;;;;;;;5040847;28;20404;-68
2022/01/19 05:05:30;;;;;;;8.10;3.05;;;;;;;;;;5042594;28;20500;-68
2022/01/19 05:08:04;;;;;;;6.88;2.38;;;;;;;;;;5044972;28;20485;-68
2022/01/19 05:13:33;;;;;;;4.68;1.98;;;;;;;;;;5040692;28;20129;-68
2022/01/19 05:16:01;;;;;;;8.55;2.65;;;;;;;;;;5038242;28;20054;-68
2022/01/19 05:18:31;;;;;;;4.35;2.20;;;;;;;;;;5040704;28;20393;-68
2022/01/19 05:21:00;;;;;;;5.53;2.10;;;;;;;;;;5034219;28;20076;-68
2022/01/19 05:23:28;;;;;;;5.80;2.33;;;;;;;;;;5029495;28;20386;-68
2022/01/19 05:25:56;;;;;;;11.82;2.97;;;;;;;;;;5041041;28;20099;-68
2022/01/19 05:28:26;;;;;;;7.10;2.45;;;;;;;;;;5045074;28;20061;-68
2022/01/19 05:30:54;;;;;;;4.85;2.40;;;;;;;;;;5046879;28;20536;-68
2022/01/19 05:33:23;;;;;;;6.95;3.20;;;;;;;;;;5043629;28;20849;-68
2022/01/19 05:35:52;;;;;;;7.35;3.22;;;;;;;;;;5037743;28;20063;-68
2022/01/19 05:38:25;;;;;;;7.10;2.75;;;;;;;;;;3712964;28;10002083;-69
2022/01/19 05:40:54;;;;;;;5.90;2.47;;;;;;;;;;1732112;28;10002014;-68
2022/01/19 05:43:22;;;;;;;8.20;2.72;;;;;;;;;;5015690;28;20053;-69
2022/01/19 05:45:53;;;;;;;11.10;3.20;;;;;;;;;;307522;28;10023539;-67
2022/01/19 05:48:21;;;;;;;7.82;3.00;;;;;;;;;;5033286;28;20245;-67
2022/01/19 05:50:50;;;;;;;5.32;2.40;;;;;;;;;;5033871;28;20132;-67
2022/01/19 05:53:18;;;;;;;9.27;3.15;;;;;;;;;;5042863;28;20049;-67
2022/01/19 05:55:48;;;;;;;9.57;3.13;;;;;;;;;;5039826;28;20060;-67
2022/01/19 05:58:17;;;;;;;17.98;3.45;;;;;;;;;;5037022;28;20054;-67
2022/01/19 06:00:45;;;;;;;7.30;3.00;;;;;;;;;;5036489;28;20089;-68
2022/01/19 06:03:17;;;;;;;10.25;3.00;;;;;;;;;;5044880;28;20045;-68
2022/01/19 06:05:45;;;;;;;9.40;2.92;;;;;;;;;;5039282;28;20137;-68
2022/01/19 06:08:18;;;;;;;6.82;2.97;;;;;;;;;;5035598;28;20128;-68
2022/01/19 06:10:48;;;;;;;5.78;2.85;;;;;;;;;;5036029;28;20144;-68
2022/01/19 06:13:17;;;;;;;5.50;2.85;;;;;;;;;;5025748;28;20329;-68
2022/01/19 06:15:46;;;;;;;8.93;3.55;;;;;;;;;;5032590;28;20525;-68
2022/01/19 06:18:15;;;;;;;7.80;3.22;;;;;;;;;;5031975;28;20485;-68
2022/01/19 06:20:45;;;;;;;10.23;3.70;;;;;;;;;;5033859;28;20055;-68
2022/01/19 06:23:13;;;;;;;10.80;4.13;;;;;;;;;;5028739;28;20053;-68
2022/01/19 06:25:42;;;;;;;10.35;3.92;;;;;;;;;;5047658;28;20128;-68
2022/01/19 06:28:10;;;;;;;8.82;3.17;;;;;;;;;;5043073;28;20385;-68
2022/01/19 06:30:38;;;;;;;9.35;3.22;;;;;;;;;;5050157;28;20041;-68
2022/01/19 06:33:07;;;;;;;8.70;3.58;;;;;;;;;;5061010;28;20080;-68
2022/01/19 06:35:40;;;;;;;9.65;3.75;;;;;;;;;;5046756;28;20440;-68
2022/01/19 06:38:09;;;;;;;7.43;3.30;;;;;;;;;;5052691;28;20685;-68
2022/01/19 06:40:38;;;;;;;7.90;3.53;;;;;;;;;;5048505;28;20102;-68
2022/01/19 06:43:06;;;;;;;9.60;3.50;;;;;;;;;;5057358;28;20052;-68
2022/01/19 06:45:35;;;;;;;6.72;3.25;;;;;;;;;;5059064;28;20088;-68
2022/01/19 06:48:03;;;;;;;13.60;3.95;;;;;;;;;;5048783;28;20051;-68
2022/01/19 06:50:32;;;;;;;12.93;3.70;;;;;;;;;;5042483;28;20555;-68
2022/01/19 06:53:17;;;;;;;11.53;4.50;;;;;;;;;;2899995;28;10003928;-68
2022/01/19 06:55:45;;;;;;;12.23;4.88;;;;;;;;;;3311929;28;10001210;-68
2022/01/19 06:58:13;;;;;;;16.02;4.93;;;;;;;;;;5045199;28;20045;-68
2022/01/19 07:00:42;;;;;;;21.75;5.80;;;;;;;;;;5042791;28;20515;-68
2022/01/19 07:03:10;;;;;;;20.65;7.03;;;;;;;;;;5049600;28;20053;-68
2022/01/19 07:05:39;;;;;;;14.10;6.20;;;;;;;;;;5040054;28;20493;-68
2022/01/19 07:08:07;;;;;;;19.63;8.25;;;;;;;;;;5048439;28;20148;-68
2022/01/19 07:10:37;;;;;;;16.17;6.75;;;;;;;;;;5046055;28;20085;-68
2022/01/19 07:13:06;;;;;;;21.27;8.05;;;;;;;;;;5039963;28;20183;-68
2022/01/19 07:15:36;;;;;;;22.98;7.10;;;;;;;;;;5043839;28;20139;-66
2022/01/19 07:18:05;;;;;;;19.73;6.82;;;;;;;;;;5048345;28;20403;-67
2022/01/19 07:20:36;;;;;;;16.38;6.28;;;;;;;;;;5045326;28;20558;-67
2022/01/19 07:23:05;;;;;;;14.82;6.32;;;;;;;;;;5046712;28;20191;-67
2022/01/19 07:25:33;;;;;;;15.10;6.22;;;;;;;;;;5031479;28;20083;-67
2022/01/19 07:28:05;;;;;;;17.55;7.82;;;;;;;;;;5038837;28;20115;-68
2022/01/19 07:30:34;;;;;;;18.95;7.35;;;;;;;;;;5042977;28;20091;-67
2022/01/19 07:33:02;;;;;;;21.73;8.18;;;;;;;;;;5039651;28;20044;-67
2022/01/19 07:35:31;;;;;;;21.85;8.35;;;;;;;;;;5036500;28;20497;-67
2022/01/19 07:37:59;;;;;;;16.88;7.35;;;;;;;;;;5041454;28;20139;-68
2022/01/19 07:40:28;;;;;;;20.67;8.35;;;;;;;;;;5037433;28;20093;-67
2022/01/19 07:42:56;;;;;;;24.88;9.15;;;;;;;;;;5030284;28;20049;-67
2022/01/19 07:45:27;;;;;;;22.40;8.95;;;;;;;;;;5042491;28;20053;-67
2022/01/19 07:47:56;;;;;;;19.98;7.80;;;;;;;;;;5025901;28;20173;-67
2022/01/19 07:50:25;;;;;;;20.08;7.90;;;;;;;;;;5039281;28;20064;-67
2022/01/19 07:52:53;;;;;;;17.17;7.75;;;;;;;;;;5044158;28;20060;-67
2022/01/19 07:55:22;;;;;;;26.92;9.48;;;;;;;;;;5038130;28;20149;-67
2022/01/19 07:57:51;;;;;;;21.23;7.95;;;;;;;;;;5045517;28;20041;-67
2022/01/19 08:00:19;;;;;;;19.88;8.15;;;;;;;;;;5036690;28;20084;-67
2022/01/19 08:02:50;;;;;;;22.02;8.32;;;;;;;;;;5034726;28;20045;-67
2022/01/19 08:05:32;;;;;;;27.15;8.25;;;;;;;;;;1068264;28;10022555;-67
2022/01/19 08:08:02;;;;;;;26.80;8.18;;;;;;;;;;4693690;28;10001196;-67
2022/01/19 08:10:31;;;;;;;19.48;7.03;;;;;;;;;;5049656;28;20045;-67
2022/01/19 08:13:02;;;;;;;21.55;8.90;;;;;;;;;;5041146;28;20338;-67
2022/01/19 08:15:31;;;;;;;19.75;8.10;;;;;;;;;;5033434;28;20048;-67
2022/01/19 08:18:01;;;;;;;22.73;8.43;;;;;;;;;;5046103;28;20136;-68
2022/01/19 08:20:30;;;;;;;27.83;9.00;;;;;;;;;;5045006;28;20049;-67
2022/01/19 08:22:59;;;;;;;24.52;8.73;;;;;;;;;;5050260;28;20049;-67
2022/01/19 08:25:28;;;;;;;21.67;8.40;;;;;;;;;;5043094;28;20063;-67
2022/01/19 08:27:56;;;;;;;22.17;8.70;;;;;;;;;;5036990;28;20148;-68
2022/01/19 08:30:25;;;;;;;19.02;8.50;;;;;;;;;;5034887;28;20080;-67
2022/01/19 08:32:54;;;;;;;21.73;8.02;;;;;;;;;;5037747;28;20045;-67
2022/01/19 08:35:24;;;;;;;24.17;8.93;;;;;;;;;;5051219;28;20138;-68
2022/01/19 08:37:53;;;;;;;20.85;8.75;;;;;;;;;;5048832;28;20056;-67
2022/01/19 08:40:26;;;;;;;24.50;8.98;;;;;;;;;;5043428;28;20095;-68
2022/01/19 08:42:55;;;;;;;25.83;8.98;;;;;;;;;;5049931;28;20075;-67
2022/01/19 08:45:24;;;;;;;25.35;8.30;;;;;;;;;;5058726;28;20068;-67
2022/01/19 08:47:55;;;;;;;25.23;9.10;;;;;;;;;;5048742;28;20041;-67
2022/01/19 08:50:25;;;;;;;20.10;7.75;;;;;;;;;;5060573;28;20114;-67
2022/01/19 08:52:53;;;;;;;15.63;7.68;;;;;;;;;;5030318;28;20051;-68
2022/01/19 08:55:22;;;;;;;21.98;9.05;;;;;;;;;;5043350;28;20656;-67
2022/01/19 08:57:51;;;;;;;22.67;9.90;;;;;;;;;;5037747;28;20160;-67
2022/01/19 09:00:21;;;;;;;22.33;8.90;;;;;;;;;;5042445;28;20052;-67
2022/01/19 09:02:50;;;;;;;24.55;8.80;;;;;;;;;;5043628;28;20574;-67
2022/01/19 09:05:18;;;;;;;24.50;8.25;;;;;;;;;;5041326;28;20053;-68
2022/01/19 09:07:49;;;;;;;25.23;8.68;;;;;;;;;;5042494;28;20077;-68
2022/01/19 09:10:20;;;;;;;23.67;9.25;;;;;;;;;;5044681;28;20047;-67
2022/01/19 09:12:50;;;;;;;24.60;9.90;;;;;;;;;;5044014;28;20493;-67
2022/01/19 09:15:19;;;;;;;25.52;9.60;;;;;;;;;;5046361;28;20053;-67
2022/01/19 09:17:48;;;;;;;20.17;9.05;;;;;;;;;;5051408;28;20554;-67
2022/01/19 09:20:17;;;;;;;27.30;10.57;;;;;;;;;;5040876;28;20114;-67
2022/01/19 09:22:49;;;;;;;25.70;8.63;;;;;;;;;;5030587;28;20041;-67
2022/01/19 09:25:19;;;;;;;23.77;8.95;;;;;;;;;;5044008;28;20056;-67
2022/01/19 09:27:48;;;;;;;26.48;9.63;;;;;;;;;;5039673;28;20417;-67
2022/01/19 09:30:18;;;;;;;22.45;9.90;;;;;;;;;;5041283;28;20048;-67
2022/01/19 09:32:55;;;;;;;22.80;8.75;;;;;;;;;;5042561;28;20045;-67
2022/01/19 09:35:26;;;;;;;24.45;9.77;;;;;;;;;;5043048;28;20508;-67
2022/01/19 09:37:55;;;;;;;22.90;8.90;;;;;;;;;;5045602;28;20145;-67
2022/01/19 09:40:29;;;;;;;;;;;;;;;;;;5026493;28;20057;-67
2022/01/19 09:43:07;;;;;;;19.90;8.10;;;;;;;;;;5044799;28;21318;-67
2022/01/19 09:45:36;;;;;;;28.17;9.40;;;;;;;;;;5044651;28;20059;-67
2022/01/19 09:48:05;;;;;;;21.52;9.13;;;;;;;;;;5042488;28;20504;-68
2022/01/19 09:50:34;;;;;;;21.63;9.38;;;;;;;;;;5044934;28;20114;-68
2022/01/19 09:53:04;;;;;;;23.88;9.73;;;;;;;;;;5049463;28;20040;-67
2022/01/19 09:55:34;;;;;;;26.70;8.88;;;;;;;;;;5043706;28;20044;-67
2022/01/19 09:58:03;;;;;;;18.25;8.02;;;;;;;;;;5044579;28;20084;-69
2022/01/19 10:00:33;;;;;;;21.15;9.77;;;;;;;;;;5018233;28;20057;-67
2022/01/19 10:03:12;;;;;;;25.48;9.60;;;;;;;;;;5027351;28;20045;-67
2022/01/19 10:06:07;;;;;;;29.15;9.35;;;;;;;;;;424595;28;10022899;-67
2022/01/19 10:08:37;;;;;;;25.90;9.00;;;;;;;;;;5035090;28;20243;-68
2022/01/19 10:11:16;;;;;;;18.95;8.85;;;;;;;;;;5045307;28;20057;-67
2022/01/19 10:19:24;;;;;;;24.65;9.75;;;;;;;;;;5026606;28;20049;-67
2022/01/19 10:22:01;;;;;;;16.75;7.90;;;;;;;;;;5028741;28;20099;-67
2022/01/19 10:24:37;;;;;;;22.27;8.73;;;;;;;;;;5032628;28;20140;-67
2022/01/19 10:27:19;;;;;;;25.02;8.90;;;;;;;;;;5035358;28;20064;-68
2022/01/19 10:29:48;;;;;;;24.77;9.75;;;;;;;;;;5029687;28;20065;-68
2022/01/19 10:32:20;;;;;;;22.10;8.43;;;;;;;;;;5036000;28;20049;-67
2022/01/19 10:34:49;;;;;;;25.10;9.60;;;;;;;;;;5036345;28;20041;-67
2022/01/19 10:37:23;;;;;;;20.98;8.07;;;;;;;;;;5037529;28;20100;-67
2022/01/19 10:39:54;;;;;;;25.67;9.27;;;;;;;;;;5029488;28;20411;-67
2022/01/19 10:42:25;;;;;;;17.92;8.73;;;;;;;;;;5028270;28;20064;-67
2022/01/19 10:44:54;;;;;;;22.25;8.52;;;;;;;;;;5033794;28;20103;-67
2022/01/19 10:47:45;;;;;;;30.95;9.65;;;;;;;;;;5015251;28;20099;-67
2022/01/19 10:50:14;;;;;;;25.40;9.00;;;;;;;;;;5036514;28;20045;-68
2022/01/19 10:52:43;;;;;;;26.05;9.27;;;;;;;;;;5042718;28;20107;-67
2022/01/19 10:55:13;;;;;;;23.85;8.82;;;;;;;;;;5036395;28;20057;-68
2022/01/19 10:57:43;;;;;;;21.33;8.88;;;;;;;;;;5040653;28;20049;-67
2022/01/19 11:00:13;;;;;;;21.85;8.73;;;;;;;;;;5023385;28;20875;-67
2022/01/19 11:02:41;;;;;;;20.23;8.10;;;;;;;;;;5022537;28;20042;-67
2022/01/19 11:05:12;;;;;;;21.80;8.60;;;;;;;;;;5018861;28;20149;-67
2022/01/19 11:07:41;;;;;;;17.23;7.57;;;;;;;;;;5027352;28;20148;-68
2022/01/19 11:10:12;;;;;;;21.35;7.80;;;;;;;;;;5025748;28;20054;-67
2022/01/19 11:12:46;;;;;;;24.40;8.32;;;;;;;;;;5027211;28;20081;-67
2022/01/19 11:15:15;;;;;;;19.42;8.00;;;;;;;;;;5012996;28;20137;-67
2022/01/19 11:17:44;;;;;;;17.75;7.95;;;;;;;;;;5022360;28;20489;-68
2022/01/19 11:20:15;;;;;;;16.35;7.45;;;;;;;;;;5016852;28;20107;-67
2022/01/19 11:22:58;;;;;;;22.60;8.93;;;;;;;;;;5022770;28;20064;-68
2022/01/19 11:25:31;;;;;;;19.75;8.38;;;;;;;;;;5020633;28;20088;-68
2022/01/19 11:28:24;;;;;;;22.50;7.65;;;;;;;;;;5016368;28;20053;-68
2022/01/19 11:30:53;;;;;;;16.63;6.60;;;;;;;;;;5024533;28;20049;-68
2022/01/19 11:33:25;;;;;;;16.63;6.63;;;;;;;;;;5031803;28;20059;-68
2022/01/19 11:35:56;;;;;;;14.40;6.55;;;;;;;;;;5023365;28;20050;-68
2022/01/19 11:38:31;;;;;;;20.48;7.65;;;;;;;;;;5026766;28;20056;-68
2022/01/19 11:41:00;;;;;;;19.27;6.22;;;;;;;;;;5035609;28;20548;-68
2022/01/19 11:43:30;;;;;;;16.20;7.28;;;;;;;;;;5026987;28;20045;-68
2022/01/19 11:45:59;;;;;;;18.40;7.15;;;;;;;;;;5036041;28;20061;-68
2022/01/19 11:48:29;;;;;;;19.77;7.53;;;;;;;;;;5038361;28;20049;-68
2022/01/19 11:51:22;;;;;;;14.27;5.82;;;;;;;;;;5026369;28;21257;-68
2022/01/19 11:54:01;;;;;;;17.02;6.97;;;;;;;;;;5021109;28;20092;-68
2022/01/19 11:56:30;;;;;;;17.88;6.55;;;;;;;;;;5025952;28;20041;-68
2022/01/19 11:59:04;;;;;;;11.73;5.75;;;;;;;;;;5024972;28;20583;-68
2022/01/19 12:01:32;;;;;;;15.88;6.50;;;;;;;;;;5034385;28;20049;-68
2022/01/19 12:04:15;;;;;;;17.00;6.30;;;;;;;;;;5044421;28;20057;-68
2022/01/19 12:06:46;;;;;;;18.25;5.95;;;;;;;;;;5024005;28;20042;-68
2022/01/19 12:09:16;;;;;;;14.80;5.93;;;;;;;;;;5013234;28;20054;-68
2022/01/19 12:11:50;;;;;;;16.80;6.50;;;;;;;;;;5023095;28;20067;-68
2022/01/19 12:14:39;;;;;;;13.27;6.08;;;;;;;;;;2517999;28;10003973;-68
2022/01/19 12:17:09;;;;;;;11.90;5.80;;;;;;;;;;3629568;28;10001305;-67
2022/01/19 12:19:40;;;;;;;16.38;6.68;;;;;;;;;;5021615;28;20563;-68
2022/01/19 12:22:20;;;;;;;15.13;6.63;;;;;;;;;;5022973;28;20056;-68
2022/01/19 12:24:56;;;;;;;15.18;6.00;;;;;;;;;;5010726;28;20045;-68
2022/01/19 12:27:26;;;;;;;16.77;5.97;;;;;;;;;;5013266;28;20049;-68
2022/01/19 12:30:05;;;;;;;15.55;6.20;;;;;;;;;;5039892;28;20106;-67
2022/01/19 12:32:44;;;;;;;24.35;6.95;;;;;;;;;;5028554;28;20851;-68
2022/01/19 12:35:16;;;;;;;16.20;7.50;;;;;;;;;;5036968;28;20053;-68
2022/01/19 12:37:48;;;;;;;15.05;6.80;;;;;;;;;;5048333;28;20044;-68
2022/01/19 12:40:44;;;;;;;14.43;6.60;;;;;;;;;;5045754;28;20049;-69
2022/01/19 12:43:13;;;;;;;;;;;;;;;;;;5019289;28;20065;-68
2022/01/19 12:45:47;;;;;;;14.98;6.68;;;;;;;;;;5029631;28;19925;-68
2022/01/19 12:48:17;;;;;;;;;;;;;;;;;;5035609;28;20049;-68
2022/01/19 12:50:49;;;;;;;16.63;7.03;;;;;;;;;;5015000;28;20011;-68
2022/01/19 12:53:24;;;;;;;15.70;6.70;;;;;;;;;;5022703;28;20069;-69
2022/01/19 12:55:55;;;;;;;15.80;6.25;;;;;;;;;;5031394;28;20054;-68
2022/01/19 12:58:25;;;;;;;16.48;7.10;;;;;;;;;;5016114;28;20045;-68
2022/01/19 13:00:55;;;;;;;14.20;5.88;;;;;;;;;;5008672;28;20065;-69
2022/01/19 13:03:27;;;;;;;16.15;6.30;;;;;;;;;;5026373;28;20139;-68
2022/01/19 13:05:58;;;;;;;16.23;6.57;;;;;;;;;;5024152;28;20054;-68
2022/01/19 13:08:31;;;;;;;18.58;6.63;;;;;;;;;;5016640;28;20060;-68
2022/01/19 13:11:09;;;;;;;17.92;7.32;;;;;;;;;;5030787;28;20139;-69
2022/01/19 13:13:49;;;;;;;13.82;6.65;;;;;;;;;;5032693;28;20081;-68
2022/01/19 13:16:35;;;;;;;16.23;6.25;;;;;;;;;;5031975;28;20524;-68
2022/01/19 13:19:10;;;;;;;15.98;6.05;;;;;;;;;;5026857;28;20056;-68
2022/01/19 13:21:40;;;;;;;15.35;6.70;;;;;;;;;;5040263;28;20081;-68
2022/01/19 13:24:14;;;;;;;20.33;6.47;;;;;;;;;;5025332;28;20049;-68
2022/01/19 13:26:44;;;;;;;19.00;6.47;;;;;;;;;;5030214;28;20045;-68
2022/01/19 13:29:19;;;;;;;18.83;7.30;;;;;;;;;;5029201;28;20049;-68
2022/01/19 13:31:55;;;;;;;13.80;6.43;;;;;;;;;;5029792;28;20328;-68
2022/01/19 13:34:24;;;;;;;14.82;6.72;;;;;;;;;;5032674;28;20398;-68
2022/01/19 13:36:59;;;;;;;14.38;7.22;;;;;;;;;;5032492;28;20049;-68
2022/01/19 13:39:30;;;;;;;12.48;6.35;;;;;;;;;;5034447;28;20534;-68
2022/01/19 13:42:00;;;;;;;19.73;7.03;;;;;;;;;;5032422;28;20046;-68
2022/01/19 13:44:33;;;;;;;15.23;7.05;;;;;;;;;;5033316;28;20536;-69
2022/01/19 13:47:10;;;;;;;22.42;7.32;;;;;;;;;;5041769;28;20095;-68
2022/01/19 13:49:40;;;;;;;14.20;6.18;;;;;;;;;;5034713;28;20490;-68
2022/01/19 13:52:10;;;;;;;15.75;6.88;;;;;;;;;;5040856;28;20052;-68
2022/01/19 13:54:42;;;;;;;13.52;6.15;;;;;;;;;;5033209;28;20100;-69
2022/01/19 13:57:11;;;;;;;18.20;7.25;;;;;;;;;;5026769;28;20112;-69
2022/01/19 13:59:40;;;;;;;18.10;7.00;;;;;;;;;;5029031;28;20057;-68
2022/01/19 14:02:18;;;;;;;13.82;6.78;;;;;;;;;;5056675;28;20053;-68
2022/01/19 14:05:04;;;;;;;16.55;5.95;;;;;;;;;;2172662;28;10024929;-68
2022/01/19 14:07:33;;;;;;;14.50;6.72;;;;;;;;;;3659360;28;10001543;-68
2022/01/19 14:10:10;;;;;;;16.77;6.95;;;;;;;;;;5045899;28;20056;-68
2022/01/19 14:12:38;;;;;;;16.98;7.13;;;;;;;;;;5049240;28;20045;-68
2022/01/19 14:15:11;;;;;;;18.50;7.18;;;;;;;;;;5060375;28;20048;-68
2022/01/19 14:17:42;;;;;;;17.95;7.30;;;;;;;;;;5044696;28;20048;-68
2022/01/19 14:20:16;;;;;;;15.05;7.20;;;;;;;;;;5047976;28;20056;-69
2022/01/19 14:22:49;;;;;;;17.48;6.93;;;;;;;;;;5043998;28;20128;-69
2022/01/19 14:25:21;;;;;;;16.23;7.07;;;;;;;;;;5046677;28;20056;-69
2022/01/19 14:27:53;;;;;;;15.48;6.95;;;;;;;;;;5041242;28;20045;-69
2022/01/19 14:30:28;;;;;;;14.18;6.60;;;;;;;;;;5044834;28;20077;-69
2022/01/19 14:32:59;;;;;;;13.73;6.35;;;;;;;;;;5047119;28;20061;-68
2022/01/19 14:35:32;;;;;;;15.77;7.05;;;;;;;;;;5043924;28;20404;-68
2022/01/19 14:38:25;;;;;;;17.92;7.20;;;;;;;;;;5057038;28;20084;-69
2022/01/19 14:41:01;;;;;;;19.88;6.50;;;;;;;;;;5044516;28;20042;-68
2022/01/19 14:43:39;;;;;;;19.27;6.53;;;;;;;;;;5040056;28;20049;-68
2022/01/19 14:46:10;;;;;;;18.35;6.53;;;;;;;;;;5051173;28;20104;-68
2022/01/19 14:48:41;;;;;;;13.60;6.00;;;;;;;;;;5058707;28;20044;-68
2022/01/19 14:51:24;;;;;;;16.75;6.03;;;;;;;;;;5057680;28;20118;-68
2022/01/19 14:53:54;;;;;;;18.25;6.60;;;;;;;;;;5051097;28;20064;-68
2022/01/19 14:56:25;;;;;;;16.27;6.80;;;;;;;;;;5062990;28;20075;-68
2022/01/19 14:59:04;;;;;;;18.23;6.72;;;;;;;;;;5056105;28;20605;-68
2022/01/19 15:01:34;;;;;;;13.27;6.65;;;;;;;;;;5027529;28;20084;-68
2022/01/19 15:04:04;;;;;;;14.02;6.60;;;;;;;;;;5024802;28;20050;-68
2022/01/19 15:06:33;;;;;;;19.40;5.93;;;;;;;;;;5030650;28;20072;-68
2022/01/19 15:09:02;;;;;;;12.68;5.93;;;;;;;;;;5014662;28;20045;-68
2022/01/19 15:11:32;;;;;;;14.15;5.40;;;;;;;;;;5029175;28;20431;-68
2022/01/19 15:14:01;;;;;;;15.77;5.75;;;;;;;;;;5030193;28;20057;-68
2022/01/19 15:16:30;;;;;;;15.05;6.38;;;;;;;;;;5029723;28;20080;-68
2022/01/19 15:18:59;;;;;;;15.43;6.43;;;;;;;;;;5022354;28;20513;-68
2022/01/19 15:21:28;;;;;;;18.80;6.18;;;;;;;;;;5025454;28;20152;-68
2022/01/19 15:23:59;;;;;;;13.57;6.07;;;;;;;;;;5029726;28;20046;-68
2022/01/19 15:26:30;;;;;;;15.57;6.78;;;;;;;;;;5038017;28;20077;-68
2022/01/19 15:29:01;;;;;;;18.30;7.13;;;;;;;;;;5032555;28;20050;-68
2022/01/19 15:31:35;;;;;;;17.17;7.35;;;;;;;;;;5021712;28;20156;-68
2022/01/19 15:34:04;;;;;;;17.00;6.50;;;;;;;;;;5025287;28;20050;-68
2022/01/19 15:36:33;;;;;;;14.95;6.70;;;;;;;;;;5028478;28;20080;-68
2022/01/19 15:39:06;;;;;;;17.63;6.53;;;;;;;;;;5028193;28;20187;-68
2022/01/19 15:41:35;;;;;;;20.80;7.18;;;;;;;;;;5027330;28;20037;-68
2022/01/19 15:44:05;;;;;;;14.50;6.03;;;;;;;;;;5027041;28;20435;-68
2022/01/19 15:46:36;;;;;;;16.27;6.60;;;;;;;;;;5031092;28;20045;-69
2022/01/19 15:49:07;;;;;;;16.35;6.47;;;;;;;;;;5028240;28;20045;-68
2022/01/19 15:51:41;;;;;;;11.02;5.07;;;;;;;;;;5029112;28;20065;-68
2022/01/19 15:54:10;;;;;;;13.55;6.25;;;;;;;;;;5028668;28;20413;-68
2022/01/19 15:56:39;;;;;;;12.77;5.18;;;;;;;;;;5028465;28;20049;-68
2022/01/19 15:59:09;;;;;;;13.20;5.53;;;;;;;;;;5029109;28;20045;-67
2022/01/19 16:01:38;;;;;;;16.80;5.50;;;;;;;;;;5047807;28;20111;-67
2022/01/19 16:04:20;;;;;;;14.72;4.82;;;;;;;;;;3507075;28;10021524;-67
2022/01/19 16:06:49;;;;;;;14.15;5.93;;;;;;;;;;2604549;28;10002097;-67
2022/01/19 16:09:18;;;;;;;13.23;5.30;;;;;;;;;;5047387;28;20203;-67
2022/01/19 16:11:46;;;;;;;15.25;5.32;;;;;;;;;;5049116;28;20136;-66
2022/01/19 16:14:17;;;;;;;16.15;5.97;;;;;;;;;;5048485;28;20053;-67